Kirchdorf, Austria
Current Conditions -  °F | °C
As of 4:50 PM on Friday 28 Nov 2014 (Local Time) from LOWL Reporting Station
Broken Clouds Broken Clouds  
Wind Chill: 28°   Ceiling: 1700
Heat Index: 36°   Visibility: 6mi
Dew Point: 32°   Wind: 12mph
Humidity: 87%   Direction: 100°E
Pressure: 29.94"   Gusts: NA
Location:  47.92°N, 14.13°E
Report Text: LOWL 281450Z 10010KT 070V130 9999 FEW009 SCT011 BKN017 02/00 Q1014 TEMPO BKN012
Loading
Personal Weather Stations






























Interactive Weather Map New forecast layout! Learn more

10-Day Weather Forecast

Advertisements
Track Severe Weather on mobile